Time;durP1;ratioP1;P1;durP2;ratioP2;P2;SDS_P1;SDS_P2;PMS_P1;PMS_P2;Temp;Humidity;BMP_temperature;BMP_pressure;BME280_temperature;BME280_humidity;BME280_pressure;Samples;Min_cycle;Max_cycle;Signal;HPM_P1;HPM_P2
2022/07/21 00:01:16;;;;;;;4.07;3.65;;;21.80;93.40;;;;;;4985917;28;20022;-84
2022/07/21 00:03:41;;;;;;;4.20;3.58;;;21.80;95.10;;;;;;5011072;28;20026;-83
2022/07/21 00:06:07;;;;;;;5.15;3.22;;;21.90;95.90;;;;;;5020766;28;20044;-81
2022/07/21 00:08:33;;;;;;;4.63;3.78;;;21.90;96.80;;;;;;5001542;28;20046;-85
2022/07/21 00:11:00;;;;;;;6.03;3.28;;;22.00;97.20;;;;;;5002009;28;20022;-82
2022/07/21 00:13:26;;;;;;;4.35;3.53;;;22.10;98.00;;;;;;4997852;28;20026;-83
2022/07/21 00:15:52;;;;;;;4.15;3.75;;;22.10;98.40;;;;;;5006301;28;20125;-82
2022/07/21 00:18:18;;;;;;;3.90;3.28;;;22.10;99.00;;;;;;5028033;28;20030;-83
2022/07/21 00:20:44;;;;;;;6.30;3.78;;;22.10;99.30;;;;;;5027964;28;20079;-84
2022/07/21 00:23:10;;;;;;;7.03;3.90;;;22.10;99.70;;;;;;5018118;28;20353;-84
2022/07/21 00:25:36;;;;;;;4.25;3.30;;;22.10;99.80;;;;;;4986798;28;20031;-83
2022/07/21 00:28:03;;;;;;;4.63;3.25;;;22.00;99.80;;;;;;5020335;28;20498;-80
2022/07/21 00:30:29;;;;;;;4.07;3.67;;;21.90;99.90;;;;;;5010006;28;20025;-83
2022/07/21 00:32:55;;;;;;;5.05;3.33;;;21.90;99.90;;;;;;4997170;28;20033;-86
2022/07/21 00:35:20;;;;;;;3.28;2.97;;;21.90;99.90;;;;;;4985534;28;20030;-85
2022/07/21 00:37:46;;;;;;;3.45;3.15;;;21.90;99.90;;;;;;5001596;28;20129;-83
2022/07/21 00:40:13;;;;;;;3.95;3.20;;;22.00;99.90;;;;;;5022950;28;20088;-84
2022/07/21 00:42:40;;;;;;;3.88;3.55;;;22.00;99.90;;;;;;5020974;28;20013;-80
2022/07/21 00:45:07;;;;;;;4.63;3.85;;;22.10;99.90;;;;;;4996737;28;20026;-83
2022/07/21 00:47:33;;;;;;;5.32;3.72;;;22.10;99.90;;;;;;5019187;28;20038;-83
2022/07/21 00:50:00;;;;;;;3.92;3.50;;;22.10;99.90;;;;;;5021104;28;20026;-83
2022/07/21 00:52:27;;;;;;;5.97;3.40;;;22.10;99.90;;;;;;5012932;28;20026;-83
2022/07/21 00:54:52;;;;;;;3.78;3.47;;;22.20;99.90;;;;;;4985871;28;20085;-82
2022/07/21 00:57:19;;;;;;;3.40;3.10;;;22.20;99.90;;;;;;5012494;28;20117;-84
2022/07/21 00:59:45;;;;;;;3.08;2.80;;;22.20;99.70;;;;;;5018078;28;20061;-80
2022/07/21 01:02:12;;;;;;;3.67;3.30;;;22.30;99.00;;;;;;4986961;28;20049;-82
2022/07/21 01:04:38;;;;;;;5.28;3.35;;;22.30;98.50;;;;;;5005642;28;20026;-83
2022/07/21 01:07:05;;;;;;;3.60;3.30;;;22.30;98.30;;;;;;5009358;28;20023;-83
2022/07/21 01:09:32;;;;;;;4.15;3.72;;;22.30;98.50;;;;;;5006172;28;20532;-81
2022/07/21 01:11:58;;;;;;;3.67;3.38;;;22.30;98.20;;;;;;5009503;28;20030;-83
2022/07/21 01:14:24;;;;;;;3.75;3.38;;;22.30;98.10;;;;;;5004951;28;20038;-84
2022/07/21 01:16:50;;;;;;;4.30;3.60;;;22.30;97.90;;;;;;5021892;28;20022;-83
2022/07/21 01:19:16;;;;;;;3.88;3.55;;;22.30;98.20;;;;;;5005415;28;20435;-84
2022/07/21 01:21:44;;;;;;;6.72;4.25;;;22.30;99.20;;;;;;5023136;28;21743;-83
2022/07/21 01:24:10;;;;;;;3.83;3.53;;;22.20;99.90;;;;;;5005372;28;20063;-84
2022/07/21 01:26:41;;;;;;;4.95;3.40;;;22.10;99.90;;;;;;5021201;28;20036;-84
2022/07/21 01:29:08;;;;;;;4.18;3.75;;;22.10;99.90;;;;;;5021772;28;20030;-83
2022/07/21 01:31:34;;;;;;;4.82;4.40;;;22.00;99.90;;;;;;5006757;28;20034;-83
2022/07/21 01:34:00;;;;;;;5.32;4.15;;;22.00;99.90;;;;;;5024686;23;20057;-83
2022/07/21 01:36:25;;;;;;;6.57;4.07;;;21.90;99.90;;;;;;4997002;28;20073;-83
2022/07/21 01:41:35;;;;;;;4.53;3.78;;;21.80;99.90;;;;;;5027810;28;20052;-83
2022/07/21 01:44:07;;;;;;;4.10;3.80;;;21.80;99.90;;;;;;4995462;28;20038;-83
2022/07/21 01:46:39;;;;;;;4.45;3.42;;;21.90;99.90;;;;;;4985548;28;20068;-82
2022/07/21 01:49:05;;;;;;;;;;;21.90;99.90;;;;;;4988062;28;20041;-82
2022/07/21 01:51:31;;;;;;;4.43;4.03;;;21.90;99.90;;;;;;4980097;28;20001;-83
2022/07/21 01:53:57;;;;;;;4.20;3.80;;;21.90;99.90;;;;;;4995698;28;20518;-82
2022/07/21 01:56:24;;;;;;;4.47;4.07;;;22.00;99.90;;;;;;4996301;28;20068;-83
2022/07/21 01:58:52;;;;;;;4.43;3.92;;;22.00;99.90;;;;;;4999158;28;20022;-82
2022/07/21 02:01:18;;;;;;;4.78;4.38;;;22.10;99.90;;;;;;4978984;28;20150;-82
2022/07/21 02:03:45;;;;;;;4.07;3.78;;;22.10;99.90;;;;;;4978128;28;20031;-83
2022/07/21 02:06:12;;;;;;;4.03;3.72;;;22.10;99.90;;;;;;4996809;28;20037;-83
2022/07/21 02:08:38;;;;;;;5.10;3.55;;;22.10;99.90;;;;;;4997452;28;20106;-83
2022/07/21 02:11:05;;;;;;;4.60;4.00;;;22.20;99.90;;;;;;4980371;28;20057;-83
2022/07/21 02:13:31;;;;;;;4.05;3.70;;;22.20;99.90;;;;;;5000480;28;20030;-83
2022/07/21 02:15:57;;;;;;;3.90;3.53;;;22.20;99.90;;;;;;4999408;28;20345;-83
2022/07/21 02:18:22;;;;;;;4.15;3.75;;;22.20;99.90;;;;;;5000354;28;20046;-84
2022/07/21 02:20:50;;;;;;;4.22;3.85;;;22.30;99.90;;;;;;5006898;28;20034;-83
2022/07/21 02:23:19;;;;;;;6.60;3.90;;;22.30;99.90;;;;;;4980324;28;20037;-83
2022/07/21 02:25:45;;;;;;;5.47;4.75;;;22.40;99.90;;;;;;5005360;28;20034;-83
2022/07/21 02:28:11;;;;;;;8.30;4.55;;;22.40;99.90;;;;;;5010273;28;20065;-82
2022/07/21 02:30:37;;;;;;;6.85;5.15;;;22.40;99.90;;;;;;5010023;28;20038;-83
2022/07/21 02:33:03;;;;;;;5.25;4.75;;;22.40;99.90;;;;;;4989045;28;20038;-83
2022/07/21 02:35:29;;;;;;;6.20;4.75;;;22.40;99.90;;;;;;5007961;28;20093;-84
2022/07/21 02:37:55;;;;;;;4.88;4.47;;;22.30;99.90;;;;;;5007293;28;20089;-83
2022/07/21 02:40:21;;;;;;;4.65;4.28;;;22.30;99.90;;;;;;4989398;28;20026;-83
2022/07/21 02:42:46;;;;;;;6.00;4.97;;;22.30;99.90;;;;;;5006803;28;20038;-83
2022/07/21 02:45:12;;;;;;;4.45;4.05;;;22.30;99.90;;;;;;5006425;28;20026;-83
2022/07/21 02:47:47;;;;;;;7.93;5.95;;;22.30;99.90;;;;;;5005907;28;20038;-82
2022/07/21 02:50:14;;;;;;;10.73;6.68;;;22.30;99.90;;;;;;5000241;28;20029;-83
2022/07/21 02:52:40;;;;;;;6.88;5.95;;;22.30;99.90;;;;;;5004223;28;20042;-83
2022/07/21 02:55:06;;;;;;;6.65;5.72;;;22.30;99.90;;;;;;5009084;28;20046;-82
2022/07/21 02:57:32;;;;;;;11.50;6.70;;;22.30;99.90;;;;;;5005655;28;20038;-83
2022/07/21 02:59:57;;;;;;;7.00;5.65;;;22.30;99.20;;;;;;5003006;28;20024;-82
2022/07/21 03:02:23;;;;;;;6.35;5.75;;;22.20;99.10;;;;;;4998852;28;20037;-82
2022/07/21 03:04:48;;;;;;;8.02;5.78;;;22.10;99.20;;;;;;4977212;28;20471;-83
2022/07/21 03:07:14;;;;;;;8.05;6.18;;;22.10;99.40;;;;;;4982267;28;20038;-83
2022/07/21 03:09:40;;;;;;;6.60;6.00;;;22.00;99.40;;;;;;5001263;28;20026;-83
2022/07/21 03:12:06;;;;;;;7.68;6.25;;;22.00;99.30;;;;;;4985388;28;20499;-83
2022/07/21 03:14:32;;;;;;;6.10;5.50;;;22.00;99.60;;;;;;5003115;28;20041;-83
2022/07/21 03:17:00;;;;;;;5.93;5.35;;;22.10;99.80;;;;;;5009651;28;20039;-83
2022/07/21 03:19:26;;;;;;;5.70;5.18;;;22.10;99.90;;;;;;4996362;28;20017;-83
2022/07/21 03:21:52;;;;;;;5.35;4.95;;;22.10;99.90;;;;;;5005405;28;20061;-82
2022/07/21 03:24:17;;;;;;;9.68;6.45;;;22.10;99.90;;;;;;5003523;28;20045;-84
2022/07/21 03:26:43;;;;;;;6.65;5.75;;;22.00;99.90;;;;;;5003529;28;20024;-83
2022/07/21 03:29:10;;;;;;;6.38;5.78;;;22.00;99.90;;;;;;5002832;28;20030;-83
2022/07/21 03:31:39;;;;;;;8.20;6.38;;;22.10;99.90;;;;;;4985810;28;20038;-83
2022/07/21 03:34:05;;;;;;;7.53;5.97;;;22.00;99.90;;;;;;5001449;28;20042;-82
2022/07/21 03:36:30;;;;;;;6.60;5.93;;;22.10;99.90;;;;;;4983478;28;20030;-82
2022/07/21 03:38:56;;;;;;;7.25;6.53;;;22.00;99.90;;;;;;4999976;28;20098;-83
2022/07/21 03:41:21;;;;;;;6.40;5.80;;;22.00;99.90;;;;;;5000550;28;20026;-83
2022/07/21 03:43:51;;;;;;;6.70;6.10;;;22.00;99.90;;;;;;4994108;28;20038;-84
2022/07/21 03:46:26;;;;;;;7.97;6.43;;;22.00;99.90;;;;;;5005634;28;20030;-84
2022/07/21 03:48:54;;;;;;;8.45;6.18;;;22.00;99.90;;;;;;4990576;28;20030;-85
2022/07/21 03:51:20;;;;;;;7.40;6.20;;;22.00;99.90;;;;;;4980591;28;20038;-85
2022/07/21 03:53:47;;;;;;;6.97;6.22;;;22.00;99.90;;;;;;4978764;28;20065;-85
2022/07/21 03:56:13;;;;;;;6.85;6.25;;;22.00;99.90;;;;;;4962796;28;20038;-86
2022/07/21 03:58:39;;;;;;;6.40;5.80;;;22.10;99.90;;;;;;4996279;28;20089;-85
2022/07/21 04:01:06;;;;;;;6.88;6.00;;;22.10;99.90;;;;;;4979865;28;20026;-85
2022/07/21 04:03:50;;;;;;;7.80;6.60;;;22.20;99.90;;;;;;4996722;28;20023;-85
2022/07/21 04:06:15;;;;;;;;;;;22.20;99.90;;;;;;4998117;28;20505;-84
2022/07/21 04:08:41;;;;;;;7.55;6.85;;;22.20;99.90;;;;;;4997611;28;19906;-84
2022/07/21 04:11:07;;;;;;;9.85;8.25;;;22.20;99.90;;;;;;5002918;28;20030;-84
2022/07/21 04:13:33;;;;;;;8.52;7.72;;;22.20;99.90;;;;;;5012201;28;20041;-84
2022/07/21 04:15:58;;;;;;;9.77;8.23;;;22.10;99.90;;;;;;4989341;28;20045;-85
2022/07/21 04:18:24;;;;;;;8.98;8.07;;;22.10;99.90;;;;;;5002904;28;20027;-84
2022/07/21 04:20:50;;;;;;;11.57;7.95;;;22.10;99.90;;;;;;5018466;28;20042;-84
2022/07/21 04:23:16;;;;;;;10.88;8.00;;;22.10;99.90;;;;;;5000221;28;20038;-84
2022/07/21 04:25:41;;;;;;;11.27;8.80;;;22.10;99.90;;;;;;4981416;28;20038;-84
2022/07/21 04:28:07;;;;;;;10.63;8.90;;;22.00;99.80;;;;;;4981069;28;20038;-84
2022/07/21 04:30:34;;;;;;;10.90;9.10;;;22.00;99.90;;;;;;4981182;28;20482;-84
2022/07/21 04:33:09;;;;;;;10.95;7.93;;;22.00;99.60;;;;;;4980814;28;20065;-84
2022/07/21 04:35:35;;;;;;;10.90;8.77;;;21.90;99.80;;;;;;4997892;28;20064;-84
2022/07/21 04:38:01;;;;;;;9.73;8.75;;;21.90;99.60;;;;;;4994586;28;20097;-84
2022/07/21 04:40:27;;;;;;;10.90;8.60;;;21.90;99.30;;;;;;5017925;28;20061;-84
2022/07/21 04:42:52;;;;;;;13.00;9.43;;;21.90;99.20;;;;;;4999741;28;20018;-85
2022/07/21 04:45:18;;;;;;;12.48;8.95;;;21.90;99.20;;;;;;5014674;28;20058;-85
2022/07/21 04:47:50;;;;;;;9.35;8.25;;;21.90;99.10;;;;;;5017336;28;20018;-84
2022/07/21 04:50:17;;;;;;;10.45;9.38;;;21.90;98.90;;;;;;5017470;28;20021;-84
2022/07/21 04:52:43;;;;;;;13.98;8.70;;;21.90;98.60;;;;;;5016936;28;20046;-83
2022/07/21 04:55:10;;;;;;;9.38;8.48;;;21.90;98.60;;;;;;5017679;28;20010;-84
2022/07/21 04:57:45;;;;;;;11.82;8.63;;;21.90;98.70;;;;;;4999656;28;20031;-84
2022/07/21 05:00:14;;;;;;;11.32;9.55;;;21.90;98.60;;;;;;5016628;28;20030;-84
2022/07/21 05:02:53;;;;;;;11.32;9.30;;;21.90;98.30;;;;;;4993278;28;20035;-85
2022/07/21 05:05:19;;;;;;;12.82;10.27;;;21.90;98.30;;;;;;4975671;28;20098;-84
2022/07/21 05:07:44;;;;;;;10.35;8.57;;;21.90;98.30;;;;;;5014440;28;20034;-84
2022/07/21 05:10:13;;;;;;;13.75;9.98;;;21.90;98.50;;;;;;5002799;28;20049;-84
2022/07/21 05:12:39;;;;;;;12.45;9.45;;;22.00;98.40;;;;;;5011818;28;20034;-83
2022/07/21 05:15:07;;;;;;;9.55;8.65;;;22.00;98.00;;;;;;5011889;28;20046;-85
2022/07/21 05:17:40;;;;;;;10.65;8.88;;;22.10;97.80;;;;;;4995487;28;20033;-84
2022/07/21 05:20:18;;;;;;;10.85;9.07;;;22.10;97.80;;;;;;4986006;28;20455;-84
2022/07/21 05:22:43;;;;;;;11.60;9.57;;;22.10;97.60;;;;;;5005667;28;20443;-85
2022/07/21 05:25:09;;;;;;;10.88;9.23;;;22.10;97.50;;;;;;5002915;28;20065;-84
2022/07/21 05:27:43;;;;;;;11.15;10.05;;;22.00;97.70;;;;;;5000656;28;20019;-85
2022/07/21 05:30:09;;;;;;;12.45;10.07;;;22.00;97.90;;;;;;4979952;28;20086;-85
2022/07/21 05:32:38;;;;;;;16.00;10.80;;;22.00;97.80;;;;;;5002202;28;20176;-84
2022/07/21 05:35:22;;;;;;;10.68;9.60;;;22.10;98.00;;;;;;4991677;28;20038;-83
2022/07/21 05:37:48;;;;;;;12.85;9.95;;;22.10;97.90;;;;;;5008864;28;20030;-84
2022/07/21 05:40:16;;;;;;;12.32;9.52;;;22.20;97.80;;;;;;4999754;28;20026;-85
2022/07/21 05:42:45;;;;;;;12.45;9.32;;;22.30;97.10;;;;;;4992692;28;20030;-84
2022/07/21 05:45:11;;;;;;;10.02;9.02;;;22.40;97.00;;;;;;4983888;28;20030;-84
2022/07/21 05:47:38;;;;;;;11.98;9.32;;;22.60;97.00;;;;;;5008459;28;20018;-84
2022/07/21 05:50:38;;;;;;;11.32;9.68;;;23.00;96.20;;;;;;5007027;28;20538;-84
2022/07/21 05:53:10;;;;;;;11.43;9.68;;;23.40;93.90;;;;;;4984417;28;20039;-84
2022/07/21 05:55:36;;;;;;;11.55;9.73;;;23.50;93.50;;;;;;4993705;28;20018;-84
2022/07/21 05:58:02;;;;;;;12.95;9.20;;;23.60;93.40;;;;;;5009084;28;20022;-84
2022/07/21 06:00:28;;;;;;;11.57;9.52;;;23.60;92.80;;;;;;4993011;28;20026;-84
2022/07/21 06:02:54;;;;;;;15.20;10.98;;;23.70;92.40;;;;;;5008507;28;20061;-84
2022/07/21 06:05:19;;;;;;;11.88;10.10;;;23.60;92.50;;;;;;4990239;28;20042;-84
2022/07/21 06:07:45;;;;;;;12.50;10.10;;;23.40;92.60;;;;;;5006763;28;20038;-84
2022/07/21 06:10:11;;;;;;;12.77;9.55;;;23.30;92.50;;;;;;5010011;28;20014;-84
2022/07/21 06:12:37;;;;;;;10.93;9.07;;;23.40;92.80;;;;;;5010245;28;20019;-84
2022/07/21 06:15:06;;;;;;;11.90;10.70;;;23.40;92.80;;;;;;4993106;28;20094;-85
2022/07/21 06:17:45;;;;;;;18.15;10.95;;;23.30;92.70;;;;;;4991777;28;20030;-84
2022/07/21 06:20:43;;;;;;;13.50;10.07;;;23.30;92.60;;;;;;4996623;28;20467;-84
2022/07/21 06:23:22;;;;;;;13.07;10.63;;;23.20;92.70;;;;;;4976548;28;20107;-84
2022/07/21 06:25:48;;;;;;;14.85;10.05;;;23.30;93.00;;;;;;4960024;28;20027;-85
2022/07/21 06:28:14;;;;;;;11.77;10.05;;;23.30;93.00;;;;;;4995253;28;20023;-85
2022/07/21 06:30:40;;;;;;;9.88;8.25;;;23.30;93.20;;;;;;4995981;28;20042;-82
2022/07/21 06:33:06;;;;;;;14.85;9.48;;;23.40;93.10;;;;;;4987650;28;20040;-84
2022/07/21 06:35:31;;;;;;;11.45;10.32;;;23.50;92.70;;;;;;5001959;28;20085;-84
2022/07/21 06:37:57;;;;;;;12.73;10.05;;;23.60;92.30;;;;;;5013110;28;20026;-83
2022/07/21 06:40:23;;;;;;;15.02;11.75;;;23.60;92.30;;;;;;5009080;28;20037;-84
2022/07/21 06:42:49;;;;;;;14.27;10.98;;;23.50;92.80;;;;;;4999485;28;20112;-83
2022/07/21 06:45:15;;;;;;;16.20;11.38;;;23.50;93.10;;;;;;5003780;28;20073;-84
2022/07/21 06:47:40;;;;;;;13.70;11.25;;;23.40;93.40;;;;;;4999197;28;20463;-84
2022/07/21 06:50:07;;;;;;;13.50;11.10;;;23.30;93.90;;;;;;4988517;28;20085;-84
2022/07/21 06:52:34;;;;;;;17.55;13.13;;;23.40;94.20;;;;;;4988060;28;20081;-85
2022/07/21 06:55:07;;;;;;;16.52;12.68;;;23.50;93.60;;;;;;5004604;28;20037;-83
2022/07/21 06:57:36;;;;;;;14.48;11.77;;;23.50;93.30;;;;;;5002095;28;20022;-84
2022/07/21 07:00:07;;;;;;;17.58;12.80;;;23.60;93.60;;;;;;5000199;28;20032;-84
2022/07/21 07:02:32;;;;;;;14.88;11.88;;;23.70;92.90;;;;;;4990102;28;20019;-84
2022/07/21 07:04:58;;;;;;;15.98;12.02;;;23.90;92.80;;;;;;5003036;28;20110;-84
2022/07/21 07:07:24;;;;;;;14.95;12.00;;;24.00;92.40;;;;;;5014914;28;20050;-83
2022/07/21 07:09:49;;;;;;;19.52;12.75;;;24.20;92.10;;;;;;5016332;28;20034;-85
2022/07/21 07:12:15;;;;;;;16.20;13.07;;;24.30;91.40;;;;;;5017015;28;20521;-84
2022/07/21 07:14:40;;;;;;;16.25;12.73;;;24.30;91.20;;;;;;5009462;28;20054;-84
2022/07/21 07:17:06;;;;;;;14.02;12.63;;;24.20;91.50;;;;;;5012234;28;20023;-83
2022/07/21 07:19:32;;;;;;;15.10;11.25;;;24.10;91.90;;;;;;4997459;28;20033;-84
2022/07/21 07:21:58;;;;;;;13.80;10.73;;;24.00;91.90;;;;;;5007679;28;20034;-84
2022/07/21 07:24:28;;;;;;;18.83;13.25;;;24.00;91.60;;;;;;5005319;28;20483;-84
2022/07/21 07:26:54;;;;;;;13.70;11.73;;;24.00;91.40;;;;;;4986512;28;20162;-83
2022/07/21 07:29:19;;;;;;;15.13;11.02;;;24.00;91.40;;;;;;5005514;28;20054;-84
2022/07/21 07:31:45;;;;;;;14.32;12.65;;;24.00;91.60;;;;;;4984433;28;20053;-85
2022/07/21 07:34:11;;;;;;;14.63;11.10;;;24.00;91.30;;;;;;5002039;28;20030;-84
2022/07/21 07:37:01;;;;;;;13.60;11.18;;;24.00;91.40;;;;;;5004751;28;20117;-85
2022/07/21 07:39:30;;;;;;;13.00;11.55;;;24.00;91.40;;;;;;4996793;28;20053;-85
2022/07/21 07:41:55;;;;;;;13.13;11.35;;;24.10;91.00;;;;;;5000911;28;20022;-85
2022/07/21 07:44:22;;;;;;;12.00;10.85;;;24.20;90.20;;;;;;4999330;28;20113;-85
2022/07/21 07:46:48;;;;;;;13.38;10.90;;;24.20;89.60;;;;;;4980827;28;20038;-85
2022/07/21 07:49:14;;;;;;;16.50;11.38;;;24.10;90.00;;;;;;4998224;28;20026;-84
2022/07/21 07:51:40;;;;;;;12.68;11.50;;;24.00;90.40;;;;;;4995721;28;20384;-84
2022/07/21 07:54:06;;;;;;;11.95;10.38;;;24.00;90.30;;;;;;4997866;28;20014;-84
2022/07/21 07:56:32;;;;;;;15.32;11.27;;;24.00;90.20;;;;;;4981637;28;20057;-83
2022/07/21 07:58:58;;;;;;;12.65;11.07;;;24.00;90.10;;;;;;5014261;23;20114;-82
2022/07/21 08:01:23;;;;;;;13.95;10.75;;;23.90;90.30;;;;;;4994617;28;20018;-81
2022/07/21 08:03:50;;;;;;;14.32;10.57;;;24.00;90.00;;;;;;5002017;28;20046;-82
2022/07/21 08:06:16;;;;;;;13.85;11.43;;;23.90;90.10;;;;;;4995151;28;20103;-80
2022/07/21 08:08:42;;;;;;;13.27;11.43;;;23.80;90.00;;;;;;4993332;28;20035;-83
2022/07/21 08:11:09;;;;;;;14.50;10.40;;;;;;;;;;4989906;28;20031;-82
2022/07/21 08:13:35;;;;;;;12.13;10.00;;;23.80;90.10;;;;;;4969546;28;20127;-83
2022/07/21 08:16:00;;;;;;;11.52;10.27;;;23.80;90.50;;;;;;4987102;28;20023;-83
2022/07/21 08:18:27;;;;;;;10.32;9.30;;;23.90;90.50;;;;;;4986434;28;20023;-84
2022/07/21 08:20:53;;;;;;;10.98;9.77;;;24.00;90.20;;;;;;4969440;28;20073;-83
2022/07/21 08:23:18;;;;;;;11.95;10.75;;;24.20;88.90;;;;;;4967075;28;20039;-81
2022/07/21 08:25:44;;;;;;;12.43;10.73;;;24.20;89.10;;;;;;4971587;29;20098;-83
2022/07/21 08:28:10;;;;;;;11.65;10.43;;;24.30;88.50;;;;;;4971307;28;20032;-82
2022/07/21 08:30:37;;;;;;;13.13;11.45;;;24.40;87.80;;;;;;4989428;28;20038;-82
2022/07/21 08:33:21;;;;;;;10.27;9.27;;;24.60;87.40;;;;;;4989076;28;20059;-84
2022/07/21 08:35:47;;;;;;;12.40;11.13;;;24.80;86.80;;;;;;4987686;28;20098;-84
2022/07/21 08:38:13;;;;;;;11.20;10.10;;;24.90;85.00;;;;;;4972784;28;20034;-83
2022/07/21 08:40:41;;;;;;;12.63;11.32;;;24.90;85.40;;;;;;4989925;28;20124;-82
2022/07/21 08:43:08;;;;;;;12.35;11.07;;;24.90;84.40;;;;;;4988831;28;20077;-83
2022/07/21 08:45:35;;;;;;;15.10;11.57;;;24.90;85.80;;;;;;4990637;28;20023;-83
2022/07/21 08:48:01;;;;;;;12.02;10.50;;;24.70;84.20;;;;;;4982416;28;20416;-82
2022/07/21 08:50:33;;;;;;;11.80;10.70;;;24.40;86.20;;;;;;4987953;28;20121;-80
2022/07/21 08:52:59;;;;;;;11.90;10.40;;;24.30;86.80;;;;;;4991055;28;20023;-81
2022/07/21 08:55:25;;;;;;;11.18;9.80;;;24.10;88.20;;;;;;4957989;28;20066;-85
2022/07/21 08:57:51;;;;;;;14.05;11.75;;;23.90;89.40;;;;;;4973822;28;20059;-82
2022/07/21 09:00:16;;;;;;;13.20;11.90;;;23.90;89.20;;;;;;4979764;28;20023;-81
2022/07/21 09:02:42;;;;;;;12.00;10.90;;;23.70;90.00;;;;;;4979547;28;20046;-82
2022/07/21 09:05:09;;;;;;;13.38;11.95;;;23.60;90.30;;;;;;4972181;28;20034;-83
2022/07/21 09:07:49;;;;;;;13.88;11.68;;;23.60;90.60;;;;;;4987952;28;20027;-81
2022/07/21 09:10:20;;;;;;;13.75;12.35;;;23.50;90.70;;;;;;4978911;28;20429;-83
2022/07/21 09:13:10;;;;;;;12.93;11.63;;;23.50;91.10;;;;;;4966165;29;20096;-83
2022/07/21 09:15:36;;;;;;;13.48;11.48;;;23.30;91.80;;;;;;4966830;28;20116;-84
2022/07/21 09:18:09;;;;;;;14.57;12.85;;;23.20;92.20;;;;;;4980318;28;20054;-83
2022/07/21 09:20:36;;;;;;;12.95;11.13;;;23.10;92.60;;;;;;4986189;28;20030;-83
2022/07/21 09:23:03;;;;;;;14.55;11.40;;;22.90;93.20;;;;;;4989163;28;20392;-83
2022/07/21 09:25:41;;;;;;;15.43;12.90;;;22.90;93.60;;;;;;4969605;28;20027;-82
2022/07/21 09:28:18;;;;;;;12.90;10.95;;;22.80;93.30;;;;;;4988814;28;20026;-82
2022/07/21 09:30:49;;;;;;;12.15;10.32;;;22.80;93.40;;;;;;4989524;28;20019;-83
2022/07/21 09:33:23;;;;;;;17.17;12.17;;;22.90;93.50;;;;;;4972290;28;20388;-83
2022/07/21 09:36:04;;;;;;;13.85;11.93;;;23.00;92.90;;;;;;4988241;28;20027;-84
2022/07/21 09:38:34;;;;;;;13.85;11.85;;;23.00;92.90;;;;;;4969816;28;20037;-85
2022/07/21 09:41:09;;;;;;;15.50;12.68;;;23.00;92.80;;;;;;4987183;28;20039;-83
2022/07/21 09:43:42;;;;;;;14.32;11.75;;;23.00;92.80;;;;;;4971325;28;20034;-84
2022/07/21 09:46:12;;;;;;;13.38;10.75;;;22.90;93.10;;;;;;4987768;28;20031;-84
2022/07/21 09:48:40;;;;;;;15.35;12.50;;;22.90;93.30;;;;;;4977476;28;20035;-83
2022/07/21 09:51:33;;;;;;;16.10;13.68;;;22.90;93.30;;;;;;4986414;28;20058;-84
2022/07/21 09:54:03;;;;;;;12.50;11.20;;;22.80;93.60;;;;;;4970255;28;20027;-83
2022/07/21 09:56:31;;;;;;;17.42;14.13;;;22.70;94.30;;;;;;4988525;28;20039;-85
2022/07/21 09:58:58;;;;;;;11.80;10.63;;;22.60;94.20;;;;;;4987711;28;20039;-83
2022/07/21 10:01:25;;;;;;;21.58;12.40;;;22.60;94.80;;;;;;4988483;28;20031;-84
2022/07/21 10:03:52;;;;;;;13.02;11.40;;;22.70;94.60;;;;;;4986701;28;20034;-84
2022/07/21 10:06:20;;;;;;;20.30;13.05;;;22.60;94.80;;;;;;4989098;28;20018;-82
2022/07/21 10:08:46;;;;;;;14.63;12.55;;;22.70;94.80;;;;;;4988751;28;20026;-83
2022/07/21 10:11:12;;;;;;;16.27;13.13;;;22.50;95.50;;;;;;4988726;28;20062;-83
2022/07/21 10:13:40;;;;;;;14.82;13.30;;;22.30;96.30;;;;;;4988024;28;20023;-82
2022/07/21 10:16:09;;;;;;;16.63;13.95;;;22.10;97.70;;;;;;4971689;28;20027;-83
2022/07/21 10:19:06;;;;;;;17.85;15.05;;;21.90;99.20;;;;;;4988771;28;20027;-82
2022/07/21 10:22:00;;;;;;;16.58;14.85;;;21.60;99.90;;;;;;4967007;28;20039;-83
2022/07/21 10:24:29;;;;;;;19.27;13.82;;;21.30;99.90;;;;;;4992216;28;20055;-83
2022/07/21 10:27:07;;;;;;;14.73;12.63;;;21.30;99.90;;;;;;4993647;28;20078;-83
2022/07/21 10:29:48;;;;;;;13.60;12.30;;;21.20;99.90;;;;;;4978044;28;20027;-84
2022/07/21 10:32:26;;;;;;;16.98;13.90;;;21.10;99.90;;;;;;4955384;29;20114;-83
2022/07/21 10:34:57;;;;;;;15.18;13.43;;;21.10;99.90;;;;;;4991020;28;20026;-84
2022/07/21 10:37:41;;;;;;;14.18;12.27;;;21.10;99.90;;;;;;4991465;28;20039;-84
2022/07/21 10:40:18;;;;;;;14.25;11.70;;;21.20;99.90;;;;;;4973245;28;20212;-84
2022/07/21 10:42:45;;;;;;;15.98;14.13;;;21.30;99.90;;;;;;4974647;28;20369;-83
2022/07/21 10:45:30;;;;;;;18.75;13.43;;;21.30;99.90;;;;;;4993194;28;20106;-84
2022/07/21 10:47:56;;;;;;;13.02;11.18;;;21.20;99.90;;;;;;5000819;28;20086;-84
2022/07/21 10:50:41;;;;;;;11.40;10.20;;;21.20;99.90;;;;;;5001922;28;20076;-84
2022/07/21 10:53:18;;;;;;;11.35;10.18;;;21.40;99.90;;;;;;5001108;28;20073;-83
2022/07/21 10:55:52;;;;;;;10.00;9.00;;;21.50;99.90;;;;;;4985081;28;20107;-83
2022/07/21 10:58:34;;;;;;;11.30;9.88;;;21.70;99.90;;;;;;4984660;28;20054;-82
2022/07/21 11:01:07;;;;;;;16.02;10.93;;;22.00;99.90;;;;;;5002072;28;20034;-83
2022/07/21 11:03:38;;;;;;;12.07;10.88;;;22.10;99.90;;;;;;5000459;28;20054;-81
2022/07/21 11:06:09;;;;;;;9.95;8.90;;;22.20;99.90;;;;;;5001278;28;20027;-79
2022/07/21 11:08:36;;;;;;;10.05;9.05;;;22.30;99.90;;;;;;5001062;28;20054;-77
2022/07/21 11:11:15;;;;;;;9.20;8.30;;;22.70;99.90;;;;;;4994244;28;20094;-80
2022/07/21 11:14:20;;;;;;;8.70;7.90;;;23.00;99.80;;;;;;4975915;28;20031;-80
2022/07/21 11:17:01;;;;;;;8.60;7.80;;;23.40;99.10;;;;;;4991512;28;20023;-81
2022/07/21 11:19:52;;;;;;;9.15;8.18;;;23.60;97.90;;;;;;4992940;28;20117;-80
2022/07/21 11:22:28;;;;;;;8.85;8.02;;;23.70;96.50;;;;;;4996174;28;20014;-81
2022/07/21 11:24:59;;;;;;;9.27;8.43;;;23.70;96.00;;;;;;4995169;28;20027;-80
2022/07/21 11:27:27;;;;;;;8.45;7.75;;;23.70;95.60;;;;;;4996355;28;20023;-81
2022/07/21 11:29:55;;;;;;;9.38;8.48;;;23.70;95.60;;;;;;4994438;28;20042;-80
2022/07/21 11:32:22;;;;;;;9.57;8.75;;;23.60;95.30;;;;;;4994485;28;20019;-79
2022/07/21 11:34:59;;;;;;;9.98;9.05;;;23.60;95.20;;;;;;4992052;28;20030;-82
2022/07/21 11:37:37;;;;;;;12.65;10.90;;;23.60;95.00;;;;;;4992124;28;20033;-82
2022/07/21 11:40:15;;;;;;;12.98;10.98;;;23.50;94.30;;;;;;4991435;28;20034;-81
2022/07/21 11:42:43;;;;;;;14.65;10.38;;;23.30;94.50;;;;;;4974076;28;20022;-79
2022/07/21 11:45:10;;;;;;;14.40;11.98;;;23.20;95.30;;;;;;4976572;28;20066;-82
2022/07/21 11:47:36;;;;;;;13.05;11.57;;;23.10;95.00;;;;;;4993059;28;20039;-81
2022/07/21 11:50:07;;;;;;;10.57;9.45;;;23.10;95.30;;;;;;4992268;28;20034;-81
2022/07/21 11:52:34;;;;;;;11.48;10.32;;;23.10;95.70;;;;;;4993205;28;20019;-79
2022/07/21 11:55:02;;;;;;;12.65;10.63;;;23.20;95.40;;;;;;4980033;28;20031;-80
2022/07/21 11:57:28;;;;;;;9.52;8.63;;;23.30;94.80;;;;;;4997614;28;20046;-79
2022/07/21 11:59:56;;;;;;;8.48;7.68;;;23.40;94.80;;;;;;4998935;28;20014;-79
2022/07/21 12:02:30;;;;;;;9.55;8.75;;;23.50;94.80;;;;;;4999399;28;20046;-79
2022/07/21 12:05:03;;;;;;;9.15;7.88;;;23.60;94.60;;;;;;4999301;28;20026;-81
2022/07/21 12:07:41;;;;;;;10.18;9.10;;;23.70;94.30;;;;;;4994375;28;20126;-79
2022/07/21 12:10:13;;;;;;;9.93;8.82;;;23.80;93.80;;;;;;4991769;28;20023;-79
2022/07/21 12:12:42;;;;;;;13.88;11.35;;;23.80;93.40;;;;;;4991984;28;20094;-81
2022/07/21 12:15:13;;;;;;;9.70;8.80;;;23.90;93.00;;;;;;4991751;28;20023;-82
2022/07/21 12:17:51;;;;;;;8.80;7.90;;;23.90;92.80;;;;;;4990278;28;20154;-81
2022/07/21 12:20:27;;;;;;;12.68;11.27;;;24.00;92.50;;;;;;5001290;28;20106;-80
2022/07/21 12:22:55;;;;;;;10.77;9.77;;;24.00;91.40;;;;;;4974614;28;20095;-81
2022/07/21 12:25:30;;;;;;;9.50;8.60;;;24.00;91.80;;;;;;5000513;28;20045;-82
2022/07/21 12:27:56;;;;;;;9.50;8.57;;;24.10;92.20;;;;;;4990127;28;20022;-80
2022/07/21 12:30:39;;;;;;;10.52;9.43;;;24.20;91.40;;;;;;4992193;28;20027;-79
2022/07/21 12:33:07;;;;;;;13.57;9.77;;;24.30;91.00;;;;;;4989663;28;20090;-81
2022/07/21 12:35:33;;;;;;;12.13;10.05;;;24.40;90.30;;;;;;4975108;29;20031;-80
2022/07/21 12:38:03;;;;;;;9.07;8.23;;;24.40;89.50;;;;;;4990599;28;20123;-81
2022/07/21 12:40:30;;;;;;;13.00;11.60;;;24.60;89.90;;;;;;4974752;29;20166;-81
2022/07/21 12:43:18;;;;;;;11.18;10.07;;;24.70;88.80;;;;;;4975999;28;20083;-80
2022/07/21 12:45:51;;;;;;;11.05;9.95;;;24.80;88.60;;;;;;4991973;28;20042;-80
2022/07/21 12:48:20;;;;;;;11.90;10.65;;;25.00;87.40;;;;;;4989381;28;20022;-80
2022/07/21 12:51:06;;;;;;;10.73;9.07;;;25.00;86.90;;;;;;4985175;28;20054;-82